Versailles, OH

6:31 AM EST on February 08, 2016 (GMT -0500)
Darke County | | Change Station
CLOSE
Current Station
Airport
Location: Versailles,
Elevation: 1007 ft
Nearby Weather Stations
Active Advisory: Special Statement

Elev 1007 ft 40.20 °N, 84.53 °W | Updated 16 minutes ago

Clear
Clear
32 °F
Feels Like 26 °F
N
6
Wind Variable Wind from West

Today
High -- | Low -- °F
--% Chance of Precip.
Yesterday
High -- | Low -- °F
Precip. -- in
Pressure 29.65 in
Visibility 10.0 miles
Clouds Clear
Windchill 26 °F
Dew Point 32 °F
Humidity 100%
Rainfall 0.00 in
Snow Depth Not available.
7:40 AM 6:04 PM
Waning Crescent, 0% visible
METAR KVES 081115Z AUTO 27005KT 10SM CLR 00/00 A2965 RMK AO2
Pressure 29.65 in
Visibility 10.0 miles
Clouds Clear
Windchill 26 °F
Dew Point 32 °F
Humidity 100%
Rainfall 0.00 in
Snow Depth Not available.
7:40 AM 6:04 PM
Waning Crescent, 0% visible
METAR KVES 081115Z AUTO 27005KT 10SM CLR 00/00 A2965 RMK AO2

10-Day Weather Forecast

Almanac

Astronomy

Feb. 08, 2016 Rise Set
Actual Time
Civil Twilight
Nautical Twilight
Astronomical Twilight
Moon
Length of Visible Light
Length of Day
Tomorrow will be .
, % of the Moon is Illuminated

Today's Extremes

State Highs State Lows

Community

WunderPhotos

Upload Photos

1,891,420 photos uploaded!

WunderBlog® & News

Nearby

Air Quality

  Air Quality AQ Index Pollutant
Not available.

Snow Depth

Station Depth Elevation

Earthquake Activity

City Distance Mag. Time & Date
Minimum magnitude displayed is 2.5.

Coastal Water Temperatures

Place Temperature

Stations

Nearby Weather Stations

Station Location Temp. Windchill Dew Point Humidity Wind Precip. Elev Updated Type
                   

Watches & Warnings

Special Statement
Issued: 4:39 AM EST Feb. 8, 2016 – National Weather Service

... Accumulating snow likely tonight...

Rain showers this morning and afternoon will transition over to
snow showers this evening. Occasional snow showers will then
continue tonight through Tuesday night. Snow accumulations of 1 to
3 inches are expected over a 36 hour period tonight through
Tuesday night. Travel difficulties are possible due to reduced
visibilities and some slick spots on highways.